Time;durP1;ratioP1;P1;durP2;ratioP2;P2;SDS_P1;SDS_P2;PMS_P1;PMS_P2;Temp;Humidity;BMP_temperature;BMP_pressure;BME280_temperature;BME280_humidity;BME280_pressure;Samples;Min_cycle;Max_cycle;Signal;HPM_P1;HPM_P2
2021/06/13 00:02:09;;;;;;;;;;;;;;;-144.31;70.44;75128.22;4967708;28;20012;-76
2021/06/13 00:04:34;;;;;;;;;;;;;;;-144.31;70.35;75114.25;4962871;28;19937;-79
2021/06/13 00:07:00;;;;;;;;;;;;;;;-144.31;70.33;75126.22;4973796;28;19957;-81
2021/06/13 00:09:25;;;;;;;;;;;;;;;-144.31;70.31;75138.22;4978648;28;19914;-78
2021/06/13 00:11:51;;;;;;;;;;;;;;;-144.31;70.28;75142.22;4964671;28;19925;-77
2021/06/13 00:14:18;;;;;;;;;;;;;;;-144.31;70.24;75158.19;4977563;28;19922;-77
2021/06/13 00:16:43;;;;;;;;;;;;;;;-144.31;70.22;75170.16;4948753;28;20005;-78
2021/06/13 00:19:08;;;;;;;;;;;;;;;-144.31;70.17;75172.16;4966652;28;20005;-77
2021/06/13 00:21:34;;;;;;;;;;;;;;;-144.31;70.12;75186.16;4963442;28;20021;-75
2021/06/13 00:23:59;;;;;;;;;;;;;;;-144.31;70.06;75196.13;4977426;28;20292;-77
2021/06/13 00:26:25;;;;;;;;;;;;;;;-144.31;70.00;75202.13;4963425;28;19914;-80
2021/06/13 00:28:52;;;;;;;;;;;;;;;-144.31;69.96;75214.09;4973058;28;19921;-79
2021/06/13 00:31:17;;;;;;;;;;;;;;;-144.31;69.89;75224.09;4963804;28;19922;-78
2021/06/13 00:33:43;;;;;;;;;;;;;;;-144.31;69.78;75210.13;4966139;28;19922;-78
2021/06/13 00:36:08;;;;;;;;;;;;;;;-144.31;69.72;75222.09;4959911;28;19980;-82
2021/06/13 00:38:33;;;;;;;;;;;;;;;-144.31;69.71;75238.06;4962969;28;20021;-79
2021/06/13 00:40:59;;;;;;;;;;;;;;;-144.31;69.58;75194.13;4956357;28;19922;-80
2021/06/13 00:43:24;;;;;;;;;;;;;;;-144.31;69.56;75224.09;4977806;28;19937;-80
2021/06/13 00:45:49;;;;;;;;;;;;;;;-144.31;69.54;75242.06;4960416;28;20392;-80
2021/06/13 00:48:15;;;;;;;;;;;;;;;-144.31;69.46;75228.09;4963774;28;19918;-79
2021/06/13 00:50:42;;;;;;;;;;;;;;;-144.31;69.45;75258.03;4958665;28;19918;-81
2021/06/13 00:53:09;;;;;;;;;;;;;;;-144.31;69.47;75280.00;4962195;28;19929;-81
2021/06/13 00:55:38;;;;;;;;;;;;;;;-144.31;69.41;75270.03;4960545;28;19960;-78
2021/06/13 00:58:05;;;;;;;;;;;;;;;-144.31;69.33;75262.03;4983031;28;19918;-78
2021/06/13 01:00:31;;;;;;;;;;;;;;;-144.31;69.26;75276.03;4977356;28;19918;-80
2021/06/13 01:02:57;;;;;;;;;;;;;;;-144.31;69.18;75282.00;4958087;28;19919;-79
2021/06/13 01:05:23;;;;;;;;;;;;;;;-144.31;69.12;75298.00;4959317;28;19921;-81
2021/06/13 01:08:08;;;;;;;;;;;;;;;-144.31;69.10;75299.97;4975373;28;19919;-77
2021/06/13 01:10:51;;;;;;;;;;;;;;;-144.31;69.06;75311.97;4960500;28;19922;-81
2021/06/13 01:13:21;;;;;;;;;;;;;;;-144.31;69.04;75325.94;4958939;28;19926;-80
2021/06/13 01:15:59;;;;;;;;;;;;;;;-144.31;69.02;75331.94;4962859;28;20415;-78
2021/06/13 01:18:45;;;;;;;;;;;;;;;-144.31;69.01;75345.91;4959013;28;19941;-80
2021/06/13 01:21:18;;;;;;;;;;;;;;;-144.31;68.96;75355.91;4968082;28;19925;-81
2021/06/13 01:23:44;;;;;;;;;;;;;;;-144.31;68.96;75365.88;4979318;28;19929;-78
2021/06/13 01:26:22;;;;;;;;;;;;;;;-144.31;68.93;75361.91;4960668;28;19917;-79
2021/06/13 01:28:58;;;;;;;;;;;;;;;-144.31;68.90;75367.88;4963658;28;19945;-79
2021/06/13 01:32:01;;;;;;;;;;;;;;;-144.31;68.86;75371.88;4974112;28;20372;-77
2021/06/13 01:34:41;;;;;;;;;;;;;;;-144.31;68.82;75383.88;4930045;29;20376;-77
2021/06/13 01:37:15;;;;;;;;;;;;;;;-144.31;68.78;75387.84;4956703;28;19963;-77
2021/06/13 01:39:46;;;;;;;;;;;;;;;-144.31;68.72;75373.88;4975115;28;20013;-77
2021/06/13 01:42:15;;;;;;;;;;;;;;;-144.31;68.73;75385.88;4958158;28;19961;-80
2021/06/13 01:44:49;;;;;;;;;;;;;;;-144.31;68.71;75389.84;4961025;28;19917;-80
2021/06/13 01:47:19;;;;;;;;;;;;;;;-144.31;68.71;75403.84;4959481;28;19933;-76
2021/06/13 01:49:45;;;;;;;;;;;;;;;-144.31;68.71;75411.81;4961346;28;19930;-77
2021/06/13 01:52:13;;;;;;;;;;;;;;;-144.31;68.70;75415.81;4976212;28;19910;-76
2021/06/13 01:54:39;;;;;;;;;;;;;;;-144.31;68.69;75427.81;4978865;28;19925;-77
2021/06/13 01:57:05;;;;;;;;;;;;;;;-144.31;68.69;75431.81;4961259;28;20656;-77
2021/06/13 01:59:56;;;;;;;;;;;;;;;-144.31;68.70;75441.78;4961956;28;20332;-77
2021/06/13 02:02:23;;;;;;;;;;;;;;;-144.31;68.68;75447.78;4978456;28;19964;-76
2021/06/13 02:04:49;;;;;;;;;;;;;;;-144.31;68.66;75449.78;4957546;28;19949;-81
2021/06/13 02:07:17;;;;;;;;;;;;;;;-144.31;68.63;75439.78;4974217;28;19922;-76
2021/06/13 02:09:45;;;;;;;;;;;;;;;-144.31;68.63;75453.78;4961485;28;19952;-79
2021/06/13 02:12:13;;;;;;;;;;;;;;;-144.31;68.64;75467.75;4973600;28;19948;-78
2021/06/13 02:14:48;;;;;;;;;;;;;;;-144.31;68.63;75477.72;4975592;28;20315;-78
2021/06/13 02:17:16;;;;;;;;;;;;;;;-144.31;68.63;75487.72;4960309;28;19976;-77
2021/06/13 02:19:49;;;;;;;;;;;;;;;-144.31;68.62;75473.75;4972827;28;19969;-80
2021/06/13 02:22:20;;;;;;;;;;;;;;;-144.31;68.60;75479.72;4976740;28;19919;-78
2021/06/13 02:24:47;;;;;;;;;;;;;;;-144.31;68.60;75487.72;4960896;28;19914;-79
2021/06/13 02:27:20;;;;;;;;;;;;;;;-144.31;68.58;75485.72;4958298;28;20332;-78
2021/06/13 02:29:50;;;;;;;;;;;;;;;-144.31;68.55;75487.72;4958184;28;19925;-79
2021/06/13 02:32:19;;;;;;;;;;;;;;;-144.31;68.53;75493.72;4958609;28;19941;-79
2021/06/13 02:34:46;;;;;;;;;;;;;;;-144.31;68.54;75509.69;4960179;28;19918;-78
2021/06/13 02:37:14;;;;;;;;;;;;;;;-144.31;68.53;75515.69;4972246;28;19922;-79
2021/06/13 02:39:40;;;;;;;;;;;;;;;-144.31;68.51;75517.69;4961348;28;19917;-80
2021/06/13 02:42:14;;;;;;;;;;;;;;;-144.31;68.49;75525.66;4972121;28;19918;-81
2021/06/13 02:44:47;;;;;;;;;;;;;;;-144.31;68.50;75535.66;4977089;28;19922;-80
2021/06/13 02:47:14;;;;;;;;;;;;;;;-144.31;68.46;75515.69;4976051;28;20334;-77
2021/06/13 02:49:39;;;;;;;;;;;;;;;-144.31;68.46;75523.69;4962955;28;19953;-80
2021/06/13 02:52:06;;;;;;;;;;;;;;;-144.31;68.48;75541.66;4974915;28;19969;-79
2021/06/13 02:54:33;;;;;;;;;;;;;;;-144.31;68.46;75535.66;4963107;28;19917;-78
2021/06/13 02:57:00;;;;;;;;;;;;;;;-144.31;68.49;75553.63;4958686;28;20284;-80
2021/06/13 02:59:32;;;;;;;;;;;;;;;-144.31;68.49;75551.63;4974594;28;19926;-78
2021/06/13 03:01:59;;;;;;;;;;;;;;;-144.31;68.49;75561.63;4960637;28;19917;-79
2021/06/13 03:04:25;;;;;;;;;;;;;;;-144.31;68.48;75559.63;4970508;28;19918;-79
2021/06/13 03:06:53;;;;;;;;;;;;;;;-144.31;68.47;75571.59;4971782;28;20385;-78
2021/06/13 03:09:21;;;;;;;;;;;;;;;-144.31;68.45;75573.59;4952558;28;19950;-79
2021/06/13 03:11:47;;;;;;;;;;;;;;;-144.31;68.45;75575.59;4953448;28;19930;-79
2021/06/13 03:14:14;;;;;;;;;;;;;;;-144.31;68.48;75589.59;4961270;28;20292;-78
2021/06/13 03:16:42;;;;;;;;;;;;;;;-144.31;68.48;75595.56;4974470;28;20336;-80
2021/06/13 03:19:11;;;;;;;;;;;;;;;-144.31;68.50;75605.56;4980605;28;20280;-80
2021/06/13 03:21:37;;;;;;;;;;;;;;;-144.31;68.51;75609.56;4953175;28;20005;-80
2021/06/13 03:24:06;;;;;;;;;;;;;;;-144.31;68.52;75613.56;4956618;28;20009;-81
2021/06/13 03:26:32;;;;;;;;;;;;;;;-144.31;68.53;75625.53;4974158;28;19965;-79
2021/06/13 03:28:59;;;;;;;;;;;;;;;-144.31;68.51;75605.56;4961178;28;20148;-77
2021/06/13 03:31:27;;;;;;;;;;;;;;;-144.31;68.52;75605.56;4975540;28;20321;-76
2021/06/13 03:33:56;;;;;;;;;;;;;;;-144.31;68.47;75589.59;4958162;28;19960;-77
2021/06/13 03:36:22;;;;;;;;;;;;;;;-144.31;68.47;75603.56;4973673;28;19918;-77
2021/06/13 03:38:49;;;;;;;;;;;;;;;-144.31;68.47;75613.56;4960890;28;19914;-78
2021/06/13 03:41:18;;;;;;;;;;;;;;;-144.31;68.48;75619.53;4958603;28;19993;-78
2021/06/13 03:43:43;;;;;;;;;;;;;;;-144.31;68.51;75621.53;4972234;28;19919;-78
2021/06/13 03:46:10;;;;;;;;;;;;;;;-144.31;68.53;75629.53;4973077;28;19922;-79
2021/06/13 03:48:35;;;;;;;;;;;;;;;-144.31;68.54;75631.53;4957568;28;19925;-80
2021/06/13 03:51:02;;;;;;;;;;;;;;;-144.31;68.55;75627.53;4958395;28;19922;-81
2021/06/13 03:53:27;;;;;;;;;;;;;;;-144.31;68.54;75629.53;4973072;28;20056;-79
2021/06/13 03:55:53;;;;;;;;;;;;;;;-144.31;68.55;75633.53;4959657;28;20008;-77
2021/06/13 03:58:23;;;;;;;;;;;;;;;-144.31;68.56;75629.53;4970779;28;20435;-78
2021/06/13 04:00:50;;;;;;;;;;;;;;;-144.31;68.57;75629.53;4960706;28;20558;-77
2021/06/13 04:03:16;;;;;;;;;;;;;;;-144.31;68.57;75633.53;4960771;28;19920;-79
2021/06/13 04:05:42;;;;;;;;;;;;;;;-144.31;68.56;75633.53;4970044;28;19914;-79
2021/06/13 04:08:09;;;;;;;;;;;;;;;-144.31;68.54;75619.53;4958500;28;20001;-79
2021/06/13 04:10:35;;;;;;;;;;;;;;;-144.31;68.56;75619.53;4979041;28;19926;-78
2021/06/13 04:13:01;;;;;;;;;;;;;;;-144.31;68.57;75619.53;4957648;28;20280;-78
2021/06/13 04:15:27;;;;;;;;;;;;;;;-144.31;68.55;75595.56;4958207;28;20353;-78
2021/06/13 04:17:53;;;;;;;;;;;;;;;-144.31;68.55;75597.56;4974636;28;19918;-79
2021/06/13 04:20:20;;;;;;;;;;;;;;;-144.31;68.54;75583.59;4977040;28;20632;-78
2021/06/13 04:22:48;;;;;;;;;;;;;;;-144.31;68.54;75583.59;4961579;28;19918;-78
2021/06/13 04:25:14;;;;;;;;;;;;;;;-144.31;68.54;75573.59;4974467;28;19929;-80
2021/06/13 04:27:41;;;;;;;;;;;;;;;-144.31;68.54;75565.63;4971132;28;19922;-80
2021/06/13 04:30:07;;;;;;;;;;;;;;;-144.31;68.54;75557.63;4959104;28;19950;-80
2021/06/13 04:32:35;;;;;;;;;;;;;;;-144.31;68.52;75545.66;4963156;28;20451;-79
2021/06/13 04:35:01;;;;;;;;;;;;;;;-144.31;68.52;75541.66;4972255;28;19919;-78
2021/06/13 04:37:26;;;;;;;;;;;;;;;-144.31;68.52;75529.66;4978290;28;19973;-79
2021/06/13 04:39:52;;;;;;;;;;;;;;;-144.31;68.50;75513.69;4962619;28;19925;-79
2021/06/13 04:42:17;;;;;;;;;;;;;;;-144.31;68.48;75497.72;4975971;28;19914;-78
2021/06/13 04:44:42;;;;;;;;;;;;;;;-144.31;68.48;75485.72;4962099;28;19935;-79
2021/06/13 04:47:10;;;;;;;;;;;;;;;-144.31;68.44;75461.75;4962763;28;19945;-79
2021/06/13 04:49:38;;;;;;;;;;;;;;;-144.31;68.43;75453.78;4975653;28;19914;-79
2021/06/13 04:52:05;;;;;;;;;;;;;;;-144.31;68.43;75437.78;4978799;28;19918;-78
2021/06/13 04:54:52;;;;;;;;;;;;;;;-144.31;68.42;75427.81;4973791;28;19940;-78
2021/06/13 04:57:27;;;;;;;;;;;;;;;-144.31;68.40;75411.81;4964871;28;19946;-79
2021/06/13 04:59:53;;;;;;;;;;;;;;;-144.31;68.40;75399.84;4978616;28;19918;-80
2021/06/13 05:02:20;;;;;;;;;;;;;;;-144.31;68.38;75385.88;4963939;28;19959;-78
2021/06/13 05:04:46;;;;;;;;;;;;;;;-144.31;68.38;75371.88;4958323;28;19981;-76
2021/06/13 05:07:12;;;;;;;;;;;;;;;-144.31;68.38;75357.91;4963274;28;20455;-76
2021/06/13 05:09:37;;;;;;;;;;;;;;;-144.31;68.38;75347.91;4978418;28;19921;-78
2021/06/13 05:12:03;;;;;;;;;;;;;;;-144.31;68.37;75325.94;4977403;28;19926;-79
2021/06/13 05:14:28;;;;;;;;;;;;;;;-144.31;68.34;75305.97;4950946;28;20014;-79
2021/06/13 05:16:53;;;;;;;;;;;;;;;-144.31;68.34;75288.00;4963358;28;20382;-78
2021/06/13 05:19:19;;;;;;;;;;;;;;;-144.31;68.36;75276.03;4971269;28;19918;-77
2021/06/13 05:21:44;;;;;;;;;;;;;;;-144.31;68.36;75266.03;4961651;28;19973;-78
2021/06/13 05:24:10;;;;;;;;;;;;;;;-144.31;68.38;75252.06;4962204;28;19914;-78
2021/06/13 05:26:37;;;;;;;;;;;;;;;-144.31;68.38;75226.09;4965174;28;19918;-78
2021/06/13 05:29:04;;;;;;;;;;;;;;;-144.31;68.41;75214.09;4957805;28;19915;-79
2021/06/13 05:31:30;;;;;;;;;;;;;;;-144.31;68.43;75200.13;4952198;28;19926;-77
2021/06/13 05:33:55;;;;;;;;;;;;;;;-144.31;68.48;75190.13;4959199;28;19918;-78
2021/06/13 05:36:23;;;;;;;;;;;;;;;-144.31;68.51;75172.16;4963712;28;19949;-77
2021/06/13 05:38:48;;;;;;;;;;;;;;;-144.31;68.56;75154.19;4972208;28;19920;-77
2021/06/13 05:41:14;;;;;;;;;;;;;;;-144.31;68.61;75140.22;4957394;28;19918;-78
2021/06/13 05:43:40;;;;;;;;;;;;;;;-144.31;68.67;75116.25;4960760;28;19969;-78
2021/06/13 05:46:06;;;;;;;;;;;;;;;-144.31;68.76;75088.28;4959430;28;19973;-79
2021/06/13 05:48:32;;;;;;;;;;;;;;;-144.31;68.88;75074.31;4977692;28;19917;-80
2021/06/13 05:50:58;;;;;;;;;;;;;;;-144.31;68.99;75046.34;4974653;28;19918;-77
2021/06/13 05:53:23;;;;;;;;;;;;;;;-144.31;69.18;75030.38;4978564;28;20382;-78
2021/06/13 05:55:49;;;;;;;;;;;;;;;-144.31;69.40;75016.41;4965231;28;20371;-78
2021/06/13 05:58:14;;;;;;;;;;;;;;;-144.31;69.70;74996.41;4960052;28;19923;-78
2021/06/13 06:00:40;;;;;;;;;;;;;;;-144.31;70.00;74980.44;4958434;28;20372;-76
2021/06/13 06:03:08;;;;;;;;;;;;;;;-144.31;70.40;74964.47;4963706;28;20471;-76
2021/06/13 06:05:34;;;;;;;;;;;;;;;-144.31;71.02;74958.47;4973604;28;19914;-78
2021/06/13 06:08:00;;;;;;;;;;;;;;;-144.31;71.56;74928.53;4963051;28;19910;-78
2021/06/13 06:10:26;;;;;;;;;;;;;;;-144.31;72.18;74904.56;4960186;28;19942;-77
2021/06/13 06:12:55;;;;;;;;;;;;;;;-144.31;73.08;74892.56;4962011;28;20425;-76
2021/06/13 06:15:26;;;;;;;;;;;;;;;-144.31;74.00;74860.63;4986500;28;19918;-78
2021/06/13 06:17:51;;;;;;;;;;;;;;;-144.31;74.78;74848.66;4965458;28;19953;-77
2021/06/13 06:20:19;;;;;;;;;;;;;;;-144.31;75.60;74858.63;4962512;28;19957;-79
2021/06/13 06:22:44;;;;;;;;;;;;;;;-144.31;75.91;74818.69;4980271;28;19928;-78
2021/06/13 06:25:10;;;;;;;;;;;;;;;-144.31;77.24;74796.72;4980788;28;20360;-80
2021/06/13 06:27:36;;;;;;;;;;;;;;;-144.31;78.76;74778.75;4959357;28;20369;-76
2021/06/13 06:30:02;;;;;;;;;;;;;;;-144.31;80.64;74766.78;4958821;28;19961;-78
2021/06/13 06:32:30;;;;;;;;;;;;;;;-144.31;83.30;74726.84;4962115;28;19915;-76
2021/06/13 06:34:55;;;;;;;;;;;;;;;-144.31;87.88;74766.78;4961748;28;20017;-79
2021/06/13 06:37:21;;;;;;;;;;;;;;;-144.31;89.72;74682.91;4975999;28;19918;-79
2021/06/13 06:39:46;;;;;;;;;;;;;;;-144.31;94.82;74658.94;4963619;28;19974;-77
2021/06/13 06:42:12;;;;;;;;;;;;;;;-144.31;100.00;74700.88;4979196;28;19932;-76
2021/06/13 06:44:37;;;;;;;;;;;;;;;-144.31;100.00;74698.88;4976680;28;19918;-79
2021/06/13 06:47:03;;;;;;;;;;;;;;;-144.31;100.00;74636.97;4963893;28;19918;-80
2021/06/13 06:49:29;;;;;;;;;;;;;;;-144.31;100.00;74634.97;4959737;28;19914;-77
2021/06/13 06:51:55;;;;;;;;;;;;;;;-144.31;100.00;74662.94;4948728;28;19992;-78
2021/06/13 06:54:20;;;;;;;;;;;;;;;-144.31;100.00;74700.88;4962429;28;19913;-78
2021/06/13 06:56:45;;;;;;;;;;;;;;;-144.31;100.00;74716.84;4977498;28;19924;-79
2021/06/13 06:59:11;;;;;;;;;;;;;;;-144.31;100.00;74694.88;4958402;28;20415;-81
2021/06/13 07:01:37;;;;;;;;;;;;;;;-144.31;100.00;74638.97;4977844;28;19953;-83
2021/06/13 07:04:03;;;;;;;;;;;;;;;-144.31;100.00;74627.00;4981806;28;19914;-76
2021/06/13 07:06:28;;;;;;;;;;;;;;;-144.31;100.00;74595.03;4966212;28;19914;-76
2021/06/13 07:08:54;;;;;;;;;;;;;;;-144.31;100.00;74619.00;4962873;28;20269;-77
2021/06/13 07:11:19;;;;;;;;;;;;;;;-144.31;100.00;74670.91;4967633;28;19928;-81
2021/06/13 07:13:44;;;;;;;;;;;;;;;-144.31;100.00;74638.97;4965187;28;19917;-76
2021/06/13 07:16:10;;;;;;;;;;;;;;;-144.31;100.00;74555.09;4962262;28;19918;-78
2021/06/13 07:18:37;;;;;;;;;;;;;;;-144.31;100.00;74557.09;4962320;28;19953;-79
2021/06/13 07:21:03;;;;;;;;;;;;;;;-144.31;100.00;74577.06;4963857;28;19925;-77
2021/06/13 07:23:28;;;;;;;;;;;;;;;-144.31;100.00;74479.22;4983154;28;19918;-77
2021/06/13 07:25:53;;;;;;;;;;;;;;;-144.31;100.00;74627.00;4951728;28;19925;-80
2021/06/13 07:28:19;;;;;;;;;;;;;;;-144.31;100.00;74563.09;4959469;28;20352;-78
2021/06/13 07:30:44;;;;;;;;;;;;;;;-144.31;100.00;74515.16;4973710;28;19948;-77
2021/06/13 07:33:12;;;;;;;;;;;;;;;-144.31;100.00;74537.13;4962327;28;20320;-77
2021/06/13 07:35:38;;;;;;;;;;;;;;;-144.31;100.00;74449.28;4957452;28;19922;-81
2021/06/13 07:38:03;;;;;;;;;;;;;;;-144.31;100.00;74385.38;4961858;28;19915;-77
2021/06/13 07:40:29;;;;;;;;;;;;;;;-144.31;100.00;74595.03;4977032;28;19918;-77
2021/06/13 07:42:55;;;;;;;;;;;;;;;-144.31;100.00;74615.00;4963645;28;19937;-78
2021/06/13 07:45:21;;;;;;;;;;;;;;;-144.31;100.00;74567.09;4972164;28;19918;-79
2021/06/13 07:47:47;;;;;;;;;;;;;;;-144.31;100.00;74465.25;4959489;28;19969;-78
2021/06/13 07:50:13;;;;;;;;;;;;;;;-144.31;100.00;74395.38;4959727;28;20440;-78
2021/06/13 07:52:39;;;;;;;;;;;;;;;-144.31;100.00;74555.09;4964822;28;19925;-78
2021/06/13 07:55:05;;;;;;;;;;;;;;;-144.31;100.00;74415.34;4963307;28;19922;-79
2021/06/13 07:57:31;;;;;;;;;;;;;;;-144.31;100.00;74379.38;4964198;28;20297;-79
2021/06/13 07:59:56;;;;;;;;;;;;;;;-144.31;100.00;74369.41;4962321;28;19930;-79
2021/06/13 08:02:21;;;;;;;;;;;;;;;-144.31;100.00;74339.44;4962623;28;20009;-80
2021/06/13 08:04:52;;;;;;;;;;;;;;;-144.31;100.00;74303.50;4964012;28;20012;-79
2021/06/13 08:07:18;;;;;;;;;;;;;;;-144.31;100.00;74299.53;4943561;28;20395;-80
2021/06/13 08:09:43;;;;;;;;;;;;;;;-144.31;100.00;74325.47;4960372;28;19910;-78
2021/06/13 08:12:09;;;;;;;;;;;;;;;-144.31;100.00;74287.53;4964599;28;19999;-80
2021/06/13 08:14:34;;;;;;;;;;;;;;;-144.31;100.00;74277.56;4961668;28;19987;-77
2021/06/13 08:16:59;;;;;;;;;;;;;;;-144.31;100.00;74325.47;4965143;28;20046;-76
2021/06/13 08:19:25;;;;;;;;;;;;;;;-144.31;100.00;74267.56;4963887;28;20404;-78
2021/06/13 08:21:51;;;;;;;;;;;;;;;-144.31;100.00;74303.50;4963082;28;19989;-79
2021/06/13 08:24:16;;;;;;;;;;;;;;;-144.31;100.00;74257.59;4969978;28;19993;-82
2021/06/13 08:26:41;;;;;;;;;;;;;;;-144.31;100.00;74237.63;4980514;28;20334;-76
2021/06/13 08:29:09;;;;;;;;;;;;;;;-144.31;100.00;74211.66;4964671;28;19924;-81
2021/06/13 08:31:35;;;;;;;;;;;;;;;-144.31;100.00;74223.66;4961240;28;19926;-79
2021/06/13 08:34:02;;;;;;;;;;;;;;;-144.31;100.00;74197.69;4951459;28;19918;-77
2021/06/13 08:36:27;;;;;;;;;;;;;;;-144.31;100.00;74221.66;4966277;28;19918;-79
2021/06/13 08:38:55;;;;;;;;;;;;;;;-144.31;100.00;74233.63;4957880;28;19915;-78
2021/06/13 08:41:20;;;;;;;;;;;;;;;-144.31;100.00;74321.47;4962535;28;19922;-78
2021/06/13 08:43:47;;;;;;;;;;;;;;;-144.31;100.00;74205.69;4957379;28;19968;-84
2021/06/13 08:46:13;;;;;;;;;;;;;;;-144.31;100.00;74193.69;4961927;28;19929;-79
2021/06/13 08:48:39;;;;;;;;;;;;;;;-144.31;100.00;74347.44;4964497;28;19918;-82
2021/06/13 08:51:04;;;;;;;;;;;;;;;-144.31;100.00;74233.63;4941063;28;19922;-80
2021/06/13 08:53:30;;;;;;;;;;;;;;;-144.31;100.00;74243.63;4960641;28;20312;-78
2021/06/13 08:55:55;;;;;;;;;;;;;;;-144.31;100.00;74155.75;4962799;28;20460;-76
2021/06/13 08:58:21;;;;;;;;;;;;;;;-144.31;100.00;74153.75;4978198;28;19987;-77
2021/06/13 09:00:50;;;;;;;;;;;;;;;-144.31;100.00;74163.75;4975058;28;19969;-79
2021/06/13 09:03:16;;;;;;;;;;;;;;;-144.31;100.00;74073.91;4959660;28;19961;-77
2021/06/13 09:05:42;;;;;;;;;;;;;;;-144.31;100.00;74135.78;4983721;28;19929;-78
2021/06/13 09:08:11;;;;;;;;;;;;;;;-144.31;100.00;74109.84;4977190;28;19921;-78
2021/06/13 09:10:37;;;;;;;;;;;;;;;-144.31;100.00;74061.91;4977139;28;19922;-78
2021/06/13 09:13:21;;;;;;;;;;;;;;;-144.31;100.00;74047.94;4965377;28;19918;-79
2021/06/13 09:15:48;;;;;;;;;;;;;;;-144.31;100.00;74025.97;4980659;28;19918;-78
2021/06/13 09:18:28;;;;;;;;;;;;;;;-144.31;100.00;74105.84;4957172;28;20359;-80
2021/06/13 09:20:57;;;;;;;;;;;;;;;-144.31;100.00;74022.00;4964443;28;20394;-77
2021/06/13 09:23:23;;;;;;;;;;;;;;;-144.31;100.00;73986.06;4975605;28;19918;-77
2021/06/13 09:25:56;;;;;;;;;;;;;;;-144.31;100.00;74113.84;4981699;28;19918;-78
2021/06/13 09:28:22;;;;;;;;;;;;;;;-144.31;100.00;74127.81;4963030;28;19946;-76
2021/06/13 09:30:50;;;;;;;;;;;;;;;-144.31;100.00;74065.91;4971257;28;19922;-77
2021/06/13 09:33:21;;;;;;;;;;;;;;;-144.31;100.00;74027.97;4962027;28;20260;-77
2021/06/13 09:35:48;;;;;;;;;;;;;;;-144.31;100.00;74071.91;4966894;28;19914;-79
2021/06/13 09:38:15;;;;;;;;;;;;;;;-144.31;100.00;74018.00;4974611;28;19952;-77
2021/06/13 09:40:48;;;;;;;;;;;;;;;-144.31;100.00;74075.91;4960765;28;19969;-78
2021/06/13 09:43:24;;;;;;;;;;;;;;;-144.31;100.00;74057.94;4956839;28;19918;-78
2021/06/13 09:45:53;;;;;;;;;;;;;;;-144.31;100.00;74121.81;4974595;28;19925;-76
2021/06/13 09:48:19;;;;;;;;;;;;;;;-144.31;100.00;74008.00;4976951;28;19918;-80
2021/06/13 09:50:46;;;;;;;;;;;;;;;-144.31;100.00;73896.22;4977000;28;19925;-76
2021/06/13 09:53:28;;;;;;;;;;;;;;;-144.31;100.00;73950.13;4958530;28;19953;-78
2021/06/13 09:56:01;;;;;;;;;;;;;;;-144.31;100.00;74020.00;4960175;28;19918;-78
2021/06/13 09:58:27;;;;;;;;;;;;;;;-144.31;100.00;74045.94;4964236;28;20404;-79
2021/06/13 10:00:52;;;;;;;;;;;;;;;-144.31;100.00;74035.97;4983477;28;19921;-77
2021/06/13 10:03:21;;;;;;;;;;;;;;;-144.31;100.00;74006.03;4962086;28;19918;-78
2021/06/13 10:05:57;;;;;;;;;;;;;;;-144.31;100.00;74018.00;4962421;28;20311;-81
2021/06/13 10:08:22;;;;;;;;;;;;;;;-144.31;100.00;73960.09;4976063;28;19969;-78
2021/06/13 10:10:48;;;;;;;;;;;;;;;-144.31;100.00;73966.09;4963903;28;19926;-78
2021/06/13 10:13:13;;;;;;;;;;;;;;;-144.31;100.00;73902.19;4957086;28;19977;-79
2021/06/13 10:15:39;;;;;;;;;;;;;;;-144.31;100.00;73946.13;4972554;28;20305;-77
2021/06/13 10:18:11;;;;;;;;;;;;;;;-144.31;100.00;73882.22;4968317;28;20384;-75
2021/06/13 10:20:36;;;;;;;;;;;;;;;-144.31;100.00;73898.22;4958936;28;19918;-79
2021/06/13 10:23:04;;;;;;;;;;;;;;;-144.31;100.00;73900.19;4961587;28;19973;-79
2021/06/13 10:25:29;;;;;;;;;;;;;;;-144.31;100.00;73992.03;4961866;28;19914;-77
2021/06/13 10:27:55;;;;;;;;;;;;;;;-144.31;100.00;73904.19;4960826;28;19918;-77
2021/06/13 10:30:21;;;;;;;;;;;;;;;-144.31;100.00;73906.19;4958566;28;20018;-77
2021/06/13 10:32:47;;;;;;;;;;;;;;;-144.31;100.00;73892.22;4963804;28;20419;-78
2021/06/13 10:35:12;;;;;;;;;;;;;;;-144.31;100.00;73912.19;4969839;28;20282;-77
2021/06/13 10:37:38;;;;;;;;;;;;;;;-144.31;100.00;73886.22;4959933;28;19925;-74
2021/06/13 10:40:04;;;;;;;;;;;;;;;-144.31;100.00;73908.19;4960675;28;19960;-76
2021/06/13 10:42:29;;;;;;;;;;;;;;;-144.31;100.00;73850.28;4945797;28;19918;-77
2021/06/13 10:44:58;;;;;;;;;;;;;;;-144.31;100.00;73954.09;4968978;28;20385;-77
2021/06/13 10:47:28;;;;;;;;;;;;;;;-144.31;100.00;73860.28;4939424;28;19945;-77
2021/06/13 10:49:56;;;;;;;;;;;;;;;-144.31;100.00;73872.25;4975081;28;19918;-77
2021/06/13 10:52:22;;;;;;;;;;;;;;;-144.31;100.00;73844.31;4964337;28;19973;-78
2021/06/13 10:54:51;;;;;;;;;;;;;;;-144.31;100.00;73764.44;4961246;28;20223;-78
2021/06/13 10:57:19;;;;;;;;;;;;;;;-144.31;100.00;73790.41;4958907;28;20467;-77
2021/06/13 10:59:47;;;;;;;;;;;;;;;-144.31;100.00;73794.38;4954340;28;19914;-77
2021/06/13 11:02:21;;;;;;;;;;;;;;;-144.31;100.00;73848.28;4955372;28;19922;-78
2021/06/13 11:04:58;;;;;;;;;;;;;;;-144.31;100.00;73800.38;4960194;28;19973;-79
2021/06/13 11:07:27;;;;;;;;;;;;;;;-144.31;88.12;73804.38;4974584;28;19922;-78
2021/06/13 11:10:08;;;;;;;;;;;;;;;-144.31;74.42;73842.31;4954526;28;20273;-79
2021/06/13 11:12:49;;;;;;;;;;;;;;;-144.31;45.72;73764.44;4958565;28;19961;-79
2021/06/13 11:15:35;;;;;;;;;;;;;;;-144.31;23.66;73758.44;4972348;28;20265;-78
2021/06/13 11:18:01;;;;;;;;;;;;;;;-144.31;21.79;73872.25;4935738;28;20009;-77
2021/06/13 11:20:34;;;;;;;;;;;;;;;-144.31;9.77;73792.41;4959565;28;19918;-79
2021/06/13 11:23:03;;;;;;;;;;;;;;;-144.31;0.00;73770.44;4959337;28;19922;-77
2021/06/13 11:25:30;;;;;;;;;;;;;;;-144.31;0.00;73734.50;4958008;28;20157;-78
2021/06/13 11:28:12;;;;;;;;;;;;;;;-144.31;0.00;73592.75;4972315;28;19985;-78
2021/06/13 11:30:40;;;;;;;;;;;;;;;-144.31;0.00;73542.84;4969938;28;19922;-78
2021/06/13 11:33:08;;;;;;;;;;;;;;;-144.31;0.00;73508.91;4963255;28;19922;-78
2021/06/13 11:35:35;;;;;;;;;;;;;;;-144.31;0.00;73335.25;4962909;28;19918;-78
2021/06/13 11:38:10;;;;;;;;;;;;;;;-144.31;0.00;73263.38;4978572;28;19941;-79
2021/06/13 11:40:46;;;;;;;;;;;;;;;-144.31;56.26;73191.50;4962611;28;19918;-78
2021/06/13 11:43:15;;;;;;;;;;;;;;;-144.31;67.96;73067.75;4977651;28;19957;-76
2021/06/13 11:45:51;;;;;;;;;;;;;;;-144.31;68.74;73069.75;4960907;28;20415;-75
2021/06/13 11:48:23;;;;;;;;;;;;;;;-144.31;68.79;73025.84;4967058;28;19918;-77
2021/06/13 11:51:00;;;;;;;;;;;;;;;-144.31;68.93;72993.91;4962707;28;20001;-77
2021/06/13 11:53:44;;;;;;;;;;;;;;;-144.31;67.67;72950.00;4976787;28;19924;-77
2021/06/13 11:56:12;;;;;;;;;;;;;;;-144.31;65.05;73013.88;4961414;28;20411;-77
2021/06/13 11:58:38;;;;;;;;;;;;;;;-144.31;62.78;72794.31;4983084;28;19914;-78
2021/06/13 12:01:03;;;;;;;;;;;;;;;-144.31;63.73;72866.16;4977555;28;19921;-78
2021/06/13 12:03:29;;;;;;;;;;;;;;;-144.31;63.74;72862.16;4977248;28;19913;-78
2021/06/13 12:06:01;;;;;;;;;;;;;;;-144.31;66.29;72973.94;4979555;28;19918;-78
2021/06/13 12:08:26;;;;;;;;;;;;;;;-144.31;69.48;72953.97;4984192;28;19926;-79
2021/06/13 12:10:52;;;;;;;;;;;;;;;-144.31;67.91;72806.28;4991964;28;19953;-77
2021/06/13 12:13:17;;;;;;;;;;;;;;;-144.31;66.70;72722.44;4988042;28;19925;-77
2021/06/13 12:15:42;;;;;;;;;;;;;;;-144.31;66.43;72742.41;4974201;28;19957;-76
2021/06/13 12:18:15;;;;;;;;;;;;;;;-144.31;73.82;73191.50;4963847;28;19925;-78
2021/06/13 12:20:40;;;;;;;;;;;;;;;-144.31;68.49;72850.19;4962779;28;20252;-77
2021/06/13 12:23:10;;;;;;;;;;;;;;;-144.31;60.66;72600.69;4963274;28;19992;-76
2021/06/13 12:28:29;;;;;;;;;;;;;;;-144.31;60.00;72526.84;4965222;28;20253;-78
2021/06/13 12:30:55;;;;;;;;;;;;;;;-144.31;63.77;73001.88;4982846;28;20311;-78